createdAt,value
2023-01-22T00:02:59.379Z,1.00
2023-01-22T00:08:00.857Z,0.93
2023-01-22T00:13:02.428Z,0.94
2023-01-22T00:18:03.879Z,0.94
2023-01-22T00:23:05.419Z,0.93
2023-01-22T00:28:07.551Z,0.93
2023-01-22T00:33:09.125Z,1.03
2023-01-22T00:38:10.512Z,1.12
2023-01-22T00:43:12.083Z,1.12
2023-01-22T00:48:15.016Z,1.17
2023-01-22T00:53:16.414Z,1.24
2023-01-22T00:58:18.011Z,1.16
2023-01-22T01:03:32.395Z,1.08
2023-01-22T01:08:37.159Z,1.04
2023-01-22T01:13:42.056Z,1.05
2023-01-22T01:18:43.882Z,0.98
2023-01-22T01:23:46.376Z,0.96
2023-01-22T01:28:48.063Z,0.99
2023-01-22T01:33:49.808Z,1.01
2023-01-22T01:38:52.009Z,1.04
2023-01-22T01:44:12.507Z,1.08
2023-01-22T01:49:29.583Z,1.13
2023-01-22T01:54:31.635Z,1.15
2023-01-22T01:59:34.119Z,1.16
2023-01-22T02:04:35.523Z,1.15
2023-01-22T02:09:37.104Z,1.16
2023-01-22T02:14:41.625Z,1.23
2023-01-22T02:19:44.067Z,1.31
2023-01-22T02:24:46.021Z,1.31
2023-01-22T02:29:47.490Z,1.29
2023-01-22T02:34:49.330Z,1.29
2023-01-22T02:39:51.196Z,1.34
2023-01-22T02:44:53.511Z,1.42
2023-01-22T02:49:54.933Z,1.32
2023-01-22T02:54:56.846Z,1.22
2023-01-22T02:59:58.639Z,1.25
2023-01-22T03:05:03.525Z,1.32
2023-01-22T03:10:05.554Z,1.31
2023-01-22T03:15:26.331Z,1.34
2023-01-22T03:20:46.267Z,1.40
2023-01-22T03:25:47.649Z,1.44
2023-01-22T03:30:49.046Z,1.48
2023-01-22T03:35:50.479Z,1.54
2023-01-22T03:40:51.868Z,1.59
2023-01-22T03:45:53.280Z,1.60
2023-01-22T03:50:54.742Z,1.61
2023-01-22T03:55:58.332Z,1.60
2023-01-22T04:01:05.442Z,1.54
2023-01-22T04:06:09.042Z,1.59
2023-01-22T04:11:10.964Z,1.48
2023-01-22T04:16:13.989Z,1.48
2023-01-22T04:21:15.534Z,1.51
2023-01-22T04:26:17.040Z,1.56
2023-01-22T04:31:18.724Z,1.53
2023-01-22T04:36:20.290Z,1.53
2023-01-22T04:41:21.662Z,1.56
2023-01-22T04:46:23.101Z,1.60
2023-01-22T04:51:24.689Z,1.61
2023-01-22T04:56:26.206Z,1.60
2023-01-22T05:01:27.670Z,1.67
2023-01-22T05:06:30.480Z,1.68
2023-01-22T05:11:31.912Z,1.69
2023-01-22T05:16:34.868Z,1.67
2023-01-22T05:21:36.289Z,1.67
2023-01-22T05:26:37.715Z,1.68
2023-01-22T05:31:40.299Z,1.63
2023-01-22T05:36:41.735Z,1.60
2023-01-22T05:41:43.408Z,1.53
2023-01-22T05:46:44.834Z,1.54
2023-01-22T05:51:46.331Z,1.59
2023-01-22T05:56:47.744Z,1.62
2023-01-22T06:01:49.151Z,1.60
2023-01-22T06:06:50.607Z,1.59
2023-01-22T06:11:52.131Z,1.64
2023-01-22T06:16:53.644Z,1.71
2023-01-22T06:21:55.102Z,1.74
2023-01-22T06:26:56.558Z,1.76
2023-01-22T06:31:57.984Z,1.71
2023-01-22T06:36:59.536Z,1.73
2023-01-22T06:42:00.976Z,1.74
2023-01-22T06:47:02.384Z,1.64
2023-01-22T06:52:06.228Z,1.65
2023-01-22T06:57:07.683Z,1.73
2023-01-22T07:02:16.546Z,1.75
2023-01-22T07:07:18.646Z,1.81
2023-01-22T07:12:20.103Z,1.88
2023-01-22T07:17:21.503Z,1.95
2023-01-22T07:22:22.901Z,1.81
2023-01-22T07:27:24.489Z,1.81
2023-01-22T07:32:26.046Z,1.87
2023-01-22T07:37:27.553Z,1.86
2023-01-22T07:42:28.939Z,1.91
2023-01-22T07:47:30.394Z,1.97
2023-01-22T07:52:31.868Z,2.07
2023-01-22T07:57:33.295Z,2.19
2023-01-22T08:02:34.792Z,2.31
2023-01-22T08:07:36.439Z,2.61
2023-01-22T08:12:41.324Z,2.92
2023-01-22T08:17:42.882Z,3.04
2023-01-22T08:22:45.446Z,3.02
2023-01-22T08:27:46.903Z,2.92
2023-01-22T08:32:50.330Z,2.81
2023-01-22T08:37:51.727Z,2.88
2023-01-22T08:42:54.614Z,2.92
2023-01-22T08:47:59.316Z,2.85
2023-01-22T08:53:00.735Z,2.76
2023-01-22T08:58:02.153Z,2.75
2023-01-22T09:03:03.644Z,2.72
2023-01-22T09:08:05.497Z,2.64
2023-01-22T09:13:06.948Z,2.59
2023-01-22T09:18:08.383Z,2.56
2023-01-22T09:23:09.802Z,2.66
2023-01-22T09:28:12.364Z,2.68
2023-01-22T09:33:13.902Z,2.81
2023-01-22T09:38:15.898Z,2.83
2023-01-22T09:43:26.112Z,2.88
2023-01-22T09:48:36.657Z,2.87
2023-01-22T09:53:38.229Z,2.83
2023-01-22T09:58:39.973Z,2.81
2023-01-22T10:03:46.168Z,2.73
2023-01-22T10:08:59.259Z,2.68
2023-01-22T10:14:02.742Z,2.69
2023-01-22T10:19:19.764Z,2.61
2023-01-22T10:24:21.241Z,2.58
2023-01-22T10:29:27.606Z,2.69
2023-01-22T10:34:32.506Z,2.81
2023-01-22T10:39:48.060Z,2.80
2023-01-22T10:44:50.578Z,2.81
2023-01-22T10:50:21.638Z,2.85
2023-01-22T10:55:28.149Z,2.86
2023-01-22T11:00:51.481Z,2.98
2023-01-22T11:06:00.037Z,3.08
2023-01-22T11:11:05.895Z,3.19
2023-01-22T11:16:16.364Z,3.36
2023-01-22T11:21:25.428Z,3.52
2023-01-22T11:26:57.005Z,3.66
2023-01-22T11:32:22.360Z,3.68
2023-01-22T11:37:41.373Z,3.82
2023-01-22T11:43:01.880Z,3.87
2023-01-22T11:48:20.208Z,3.96
2023-01-22T11:53:36.743Z,3.95
2023-01-22T11:58:49.694Z,4.01
2023-01-22T12:04:15.145Z,4.15
2023-01-22T12:09:24.627Z,4.25
2023-01-22T12:14:35.260Z,4.36
2023-01-22T12:19:55.013Z,4.32
2023-01-22T12:25:03.192Z,4.35
2023-01-22T12:30:23.606Z,4.44
2023-01-22T12:35:27.246Z,4.56
2023-01-22T12:40:59.178Z,4.67
2023-01-22T12:46:25.551Z,4.69
2023-01-22T12:51:51.211Z,4.50
2023-01-22T12:57:10.491Z,4.41
2023-01-22T13:02:28.391Z,4.35
2023-01-22T13:07:29.873Z,4.58
2023-01-22T13:12:47.772Z,4.71
2023-01-22T13:18:06.210Z,4.64
2023-01-22T13:23:12.221Z,4.41
2023-01-22T13:28:17.925Z,4.41
2023-01-22T13:33:19.517Z,4.34
2023-01-22T13:38:26.981Z,4.32
2023-01-22T13:43:30.607Z,4.22
2023-01-22T13:48:32.409Z,4.12
2023-01-22T13:53:41.653Z,3.98
2023-01-22T13:58:48.357Z,3.96
2023-01-22T14:04:02.023Z,3.99
2023-01-22T14:09:03.856Z,4.08
2023-01-22T14:14:15.931Z,4.11
2023-01-22T14:19:17.830Z,4.21
2023-01-22T14:24:19.424Z,4.30
2023-01-22T14:29:20.957Z,4.30
2023-01-22T14:34:22.711Z,4.28
2023-01-22T14:39:24.460Z,4.25
2023-01-22T14:44:26.033Z,4.26
2023-01-22T14:49:27.568Z,4.32
2023-01-22T14:54:29.144Z,4.32
2023-01-22T14:59:30.943Z,4.32
2023-01-22T15:04:32.410Z,4.15
2023-01-22T15:09:33.950Z,3.93
2023-01-22T15:14:35.637Z,3.85
2023-01-22T15:19:41.446Z,3.71
2023-01-22T15:24:43.839Z,3.63
2023-01-22T15:29:46.330Z,3.46
2023-01-22T15:34:47.801Z,3.38
2023-01-22T15:39:49.724Z,3.28
2023-01-22T15:44:51.357Z,3.21
2023-01-22T15:49:52.908Z,3.13
2023-01-22T15:54:54.497Z,3.09
2023-01-22T15:59:56.089Z,3.02
2023-01-22T16:04:57.578Z,3.01
2023-01-22T16:09:59.037Z,3.03
2023-01-22T16:15:00.553Z,3.04
2023-01-22T16:20:03.547Z,3.06
2023-01-22T16:25:05.343Z,3.07
2023-01-22T16:30:07.712Z,3.08
2023-01-22T16:35:10.744Z,3.08
2023-01-22T16:40:13.468Z,3.06
2023-01-22T16:45:14.901Z,3.05
2023-01-22T16:50:16.870Z,3.02
2023-01-22T16:55:18.578Z,3.03
2023-01-22T17:00:20.794Z,3.07
2023-01-22T17:05:22.366Z,3.07
2023-01-22T17:10:23.872Z,3.03
2023-01-22T17:15:25.368Z,3.02
2023-01-22T17:20:26.848Z,2.98
2023-01-22T17:25:28.443Z,2.92
2023-01-22T17:30:31.594Z,2.85
2023-01-22T17:35:33.030Z,2.83
2023-01-22T17:40:36.891Z,2.82
2023-01-22T17:45:39.953Z,2.79
2023-01-22T17:50:41.453Z,2.79
2023-01-22T17:55:42.882Z,2.80
2023-01-22T18:00:44.299Z,2.81
2023-01-22T18:05:45.763Z,2.84
2023-01-22T18:10:47.267Z,2.87
2023-01-22T18:15:49.401Z,2.88
2023-01-22T18:20:50.892Z,2.84
2023-01-22T18:25:58.160Z,2.86
2023-01-22T18:31:08.541Z,2.84
2023-01-22T18:36:12.754Z,2.86
2023-01-22T18:41:20.308Z,2.84
2023-01-22T18:46:24.514Z,2.84
2023-01-22T18:51:28.109Z,2.84
2023-01-22T18:56:29.626Z,2.83
2023-01-22T19:01:37.340Z,2.87
2023-01-22T19:06:39.030Z,2.89
2023-01-22T19:11:43.007Z,2.86
2023-01-22T19:16:45.148Z,2.88
2023-01-22T19:21:52.392Z,2.87
2023-01-22T19:26:57.702Z,2.81
2023-01-22T19:31:59.293Z,2.78
2023-01-22T19:37:02.291Z,2.82
2023-01-22T19:42:06.722Z,2.84
2023-01-22T19:47:09.279Z,2.84
2023-01-22T19:52:13.242Z,2.85
2023-01-22T19:57:15.528Z,2.79
2023-01-22T20:02:20.751Z,2.78
2023-01-22T20:07:22.645Z,2.75
2023-01-22T20:12:24.065Z,2.70
2023-01-22T20:17:27.558Z,2.63
2023-01-22T20:22:29.002Z,2.64
2023-01-22T20:27:31.673Z,2.66
2023-01-22T20:32:33.203Z,2.67
2023-01-22T20:37:34.679Z,2.68
2023-01-22T20:42:36.276Z,2.67
2023-01-22T20:47:38.166Z,2.64
2023-01-22T20:52:39.635Z,2.66
2023-01-22T20:57:41.751Z,2.63
2023-01-22T21:02:43.272Z,2.66
2023-01-22T21:07:44.808Z,2.64
2023-01-22T21:12:46.990Z,2.64
2023-01-22T21:17:48.560Z,2.61
2023-01-22T21:22:50.275Z,2.62
2023-01-22T21:27:51.793Z,2.59
2023-01-22T21:32:53.396Z,2.57
2023-01-22T21:37:54.876Z,2.52
2023-01-22T21:43:15.092Z,2.50
2023-01-22T21:48:16.515Z,2.48
2023-01-22T21:53:17.940Z,2.47
2023-01-22T21:58:20.276Z,2.47
2023-01-22T22:03:21.693Z,2.44
2023-01-22T22:08:23.143Z,2.42
2023-01-22T22:13:24.563Z,2.35
2023-01-22T22:18:25.979Z,2.35
2023-01-22T22:23:27.568Z,2.36
2023-01-22T22:28:30.235Z,2.36
2023-01-22T22:33:31.924Z,2.35
2023-01-22T22:38:33.711Z,2.33
2023-01-22T22:43:37.269Z,2.33
2023-01-22T22:48:38.662Z,2.35
2023-01-22T22:53:40.924Z,2.40
2023-01-22T22:58:42.427Z,2.41
2023-01-22T23:03:44.077Z,2.42
2023-01-22T23:08:48.315Z,2.41
2023-01-22T23:13:50.027Z,2.40
2023-01-22T23:18:51.922Z,2.38
2023-01-22T23:23:54.308Z,2.34
2023-01-22T23:28:58.200Z,2.28
2023-01-22T23:34:01.242Z,2.28
2023-01-22T23:39:04.090Z,2.30
2023-01-22T23:44:06.037Z,2.30
2023-01-22T23:49:07.495Z,2.25
2023-01-22T23:54:09.342Z,2.26
2023-01-22T23:59:11.415Z,2.28
